createdAt,value
2023-12-10T00:00:00.397Z,99.90
2023-12-10T00:05:04.086Z,99.80
2023-12-10T00:10:10.178Z,99.70
2023-12-10T00:15:13.908Z,99.70
2023-12-10T00:20:17.608Z,98.80
2023-12-10T00:25:22.537Z,98.90
2023-12-10T00:30:26.856Z,98.60
2023-12-10T00:35:30.534Z,98.70
2023-12-10T00:40:35.486Z,97.80
2023-12-10T00:45:39.258Z,99.00
2023-12-10T00:50:42.946Z,98.10
2023-12-10T00:55:48.207Z,98.60
2023-12-10T01:00:52.738Z,98.10
2023-12-10T01:05:56.411Z,98.10
2023-12-10T01:11:01.541Z,97.70
2023-12-10T01:16:05.853Z,98.20
2023-12-10T01:21:10.834Z,97.80
2023-12-10T01:26:16.143Z,97.60
2023-12-10T01:31:20.921Z,97.50
2023-12-10T01:36:25.126Z,97.80
2023-12-10T01:41:30.278Z,98.00
2023-12-10T01:46:33.865Z,97.00
2023-12-10T01:51:38.733Z,97.60
2023-12-10T01:56:55.211Z,97.30
2023-12-10T02:02:04.416Z,97.30
2023-12-10T02:07:08.013Z,96.90
2023-12-10T02:12:13.098Z,96.60
2023-12-10T02:17:16.670Z,95.50
2023-12-10T02:22:23.282Z,96.30
2023-12-10T02:27:28.551Z,95.10
2023-12-10T02:32:32.427Z,96.20
2023-12-10T02:37:36.191Z,96.10
2023-12-10T02:42:41.248Z,96.20
2023-12-10T02:47:44.972Z,95.90
2023-12-10T02:52:48.597Z,96.50
2023-12-10T02:57:53.688Z,96.00
2023-12-10T03:02:57.436Z,96.20
2023-12-10T03:08:01.041Z,96.00
2023-12-10T03:13:06.061Z,95.50
2023-12-10T03:18:11.059Z,95.90
2023-12-10T03:23:17.395Z,95.20
2023-12-10T03:28:26.807Z,95.00
2023-12-10T03:33:33.186Z,95.90
2023-12-10T03:38:36.890Z,95.80
2023-12-10T03:43:41.840Z,96.10
2023-12-10T03:48:45.530Z,96.40
2023-12-10T03:53:49.175Z,97.50
2023-12-10T03:58:54.169Z,97.60
2023-12-10T04:03:57.839Z,98.60
2023-12-10T04:09:01.441Z,98.30
2023-12-10T04:14:10.102Z,98.70
2023-12-10T04:19:13.889Z,99.10
2023-12-10T04:24:18.066Z,99.70
2023-12-10T04:29:23.029Z,99.90
2023-12-10T04:34:26.796Z,99.90
2023-12-10T04:39:30.577Z,99.90
2023-12-10T04:44:35.556Z,99.90
2023-12-10T04:49:39.347Z,99.90
2023-12-10T04:54:43.048Z,99.90
2023-12-10T04:59:47.987Z,99.90
2023-12-10T05:04:51.655Z,99.90
2023-12-10T05:09:55.708Z,99.90
2023-12-10T05:15:00.646Z,99.90
2023-12-10T05:20:06.518Z,99.90
2023-12-10T05:25:12.698Z,99.90
2023-12-10T05:30:17.823Z,99.90
2023-12-10T05:35:21.501Z,99.90
2023-12-10T05:40:26.857Z,99.90
2023-12-10T05:45:31.989Z,99.90
2023-12-10T05:50:35.586Z,99.90
2023-12-10T05:55:39.153Z,99.90
2023-12-10T06:00:44.168Z,99.90
2023-12-10T06:05:48.069Z,99.90
2023-12-10T06:10:51.728Z,99.90
2023-12-10T06:15:57.581Z,99.90
2023-12-10T06:21:01.240Z,99.90
2023-12-10T06:26:04.949Z,99.90
2023-12-10T06:31:10.342Z,99.90
2023-12-10T06:36:14.075Z,99.50
2023-12-10T06:41:17.674Z,98.80
2023-12-10T06:46:22.742Z,99.10
2023-12-10T06:51:26.345Z,97.90
2023-12-10T06:56:30.151Z,97.90
2023-12-10T07:01:35.405Z,97.40
2023-12-10T07:06:39.250Z,96.60
2023-12-10T07:11:42.888Z,96.70
2023-12-10T07:16:47.907Z,95.70
2023-12-10T07:21:54.050Z,95.10
2023-12-10T07:26:58.107Z,95.10
2023-12-10T07:32:03.387Z,95.00
2023-12-10T07:37:07.057Z,94.40
2023-12-10T07:42:10.664Z,94.20
2023-12-10T07:47:15.603Z,94.50
2023-12-10T07:52:19.593Z,93.30
2023-12-10T07:57:23.242Z,93.50
2023-12-10T08:02:28.443Z,93.70
2023-12-10T08:07:32.334Z,93.10
2023-12-10T08:12:36.944Z,93.20
2023-12-10T08:17:43.024Z,93.50
2023-12-10T08:22:49.186Z,92.90
2023-12-10T08:27:52.892Z,92.80
2023-12-10T08:32:57.942Z,92.60
2023-12-10T08:38:01.570Z,92.70
2023-12-10T08:43:05.153Z,92.40
2023-12-10T08:48:10.189Z,92.50
2023-12-10T08:53:13.852Z,92.60
2023-12-10T08:58:17.908Z,92.00
2023-12-10T09:03:22.962Z,92.20
2023-12-10T09:08:27.920Z,92.40
2023-12-10T09:13:31.524Z,92.70
2023-12-10T09:18:36.608Z,92.80
2023-12-10T09:23:40.236Z,93.50
2023-12-10T09:28:43.816Z,93.20
2023-12-10T09:33:51.080Z,93.40
2023-12-10T09:38:54.672Z,93.60
2023-12-10T09:44:00.233Z,93.50
2023-12-10T09:49:05.985Z,93.70
2023-12-10T09:54:09.670Z,93.50
2023-12-10T09:59:13.251Z,93.30
2023-12-10T10:04:19.123Z,93.10
2023-12-10T10:09:28.770Z,93.20
2023-12-10T10:14:38.844Z,93.20
2023-12-10T10:19:43.932Z,92.60
2023-12-10T10:24:47.603Z,92.70
2023-12-10T10:29:54.670Z,92.60
2023-12-10T10:35:04.199Z,92.60
2023-12-10T10:40:09.054Z,92.50
2023-12-10T10:45:12.758Z,92.30
2023-12-10T10:50:24.043Z,92.20
2023-12-10T10:55:29.087Z,92.60
2023-12-10T11:00:37.065Z,92.50
2023-12-10T11:05:42.934Z,92.60
2023-12-10T11:10:52.412Z,92.00
2023-12-10T11:15:59.717Z,92.20
2023-12-10T11:21:05.005Z,92.10
2023-12-10T11:26:08.683Z,92.30
2023-12-10T11:31:13.042Z,92.70
2023-12-10T11:36:35.589Z,92.90
2023-12-10T11:41:51.987Z,92.80
2023-12-10T11:47:06.611Z,92.20
2023-12-10T11:52:12.811Z,92.70
2023-12-10T11:57:16.737Z,92.50
2023-12-10T12:02:20.295Z,92.00
2023-12-10T12:07:29.625Z,92.10
2023-12-10T12:12:38.326Z,92.30
2023-12-10T12:17:45.139Z,92.60
2023-12-10T12:22:51.471Z,91.60
2023-12-10T12:27:55.120Z,91.00
2023-12-10T12:32:58.867Z,91.70
2023-12-10T12:38:04.088Z,91.10
2023-12-10T12:43:07.717Z,90.80
2023-12-10T12:48:11.464Z,91.20
2023-12-10T12:53:16.485Z,91.50
2023-12-10T12:58:20.207Z,91.90
2023-12-10T13:03:24.273Z,91.60
2023-12-10T13:08:29.271Z,91.60
2023-12-10T13:13:32.894Z,91.60
2023-12-10T13:18:36.662Z,91.60
2023-12-10T13:23:41.655Z,92.00
2023-12-10T13:28:45.447Z,92.70
2023-12-10T13:33:49.183Z,92.60
2023-12-10T13:38:54.207Z,92.70
2023-12-10T13:43:57.864Z,93.10
2023-12-10T13:49:02.566Z,93.20
2023-12-10T13:54:07.702Z,93.20
2023-12-10T13:59:11.247Z,93.60
2023-12-10T14:04:14.877Z,94.10
2023-12-10T14:09:19.964Z,94.30
2023-12-10T14:14:23.740Z,94.50
2023-12-10T14:19:28.165Z,94.60
2023-12-10T14:24:36.179Z,94.50
2023-12-10T14:29:39.814Z,94.60
2023-12-10T14:34:44.510Z,94.70
2023-12-10T14:39:49.718Z,94.80
2023-12-10T14:44:53.453Z,94.80
2023-12-10T14:49:57.124Z,94.90
2023-12-10T14:55:02.107Z,95.10
2023-12-10T15:00:07.534Z,95.10
2023-12-10T15:05:11.165Z,95.10
2023-12-10T15:10:16.199Z,95.20
2023-12-10T15:15:21.692Z,95.50
2023-12-10T15:20:25.560Z,95.80
2023-12-10T15:25:30.606Z,95.80
2023-12-10T15:30:36.642Z,95.90
2023-12-10T15:35:40.706Z,96.00
2023-12-10T15:40:45.958Z,96.00
2023-12-10T15:45:49.647Z,95.80
2023-12-10T15:50:53.266Z,96.20
2023-12-10T15:55:58.425Z,96.10
2023-12-10T16:01:03.204Z,96.00
2023-12-10T16:06:07.464Z,95.90
2023-12-10T16:12:58.451Z,95.70
2023-12-10T16:18:02.303Z,95.60
2023-12-10T16:23:05.962Z,96.10
2023-12-10T16:28:11.150Z,95.70
2023-12-10T16:33:14.813Z,95.90
2023-12-10T16:38:18.557Z,95.80
2023-12-10T16:43:23.619Z,96.00
2023-12-10T16:48:27.901Z,96.50
2023-12-10T16:53:35.288Z,96.50
2023-12-10T16:58:40.202Z,96.30
2023-12-10T17:03:44.010Z,96.10
2023-12-10T17:08:47.618Z,96.30
2023-12-10T17:13:52.573Z,96.50
2023-12-10T17:18:56.331Z,96.00
2023-12-10T17:23:59.945Z,95.40
2023-12-10T17:29:04.950Z,95.80
2023-12-10T17:34:08.662Z,95.90
2023-12-10T17:39:13.716Z,95.10
2023-12-10T17:44:20.434Z,95.00
2023-12-10T17:49:24.170Z,95.20
2023-12-10T17:54:27.833Z,95.60
2023-12-10T17:59:34.881Z,94.90
2023-12-10T18:04:38.488Z,95.50
2023-12-10T18:09:42.555Z,95.40
2023-12-10T18:14:47.570Z,95.80
2023-12-10T18:19:51.249Z,96.30
2023-12-10T18:24:55.857Z,96.70
2023-12-10T18:30:01.022Z,97.50
2023-12-10T18:35:04.841Z,97.90
2023-12-10T18:40:09.833Z,98.20
2023-12-10T18:45:14.826Z,98.50
2023-12-10T18:50:18.576Z,98.60
2023-12-10T18:55:22.230Z,99.20
2023-12-10T19:00:27.444Z,99.90
2023-12-10T19:05:31.153Z,99.70
2023-12-10T19:10:34.997Z,99.90
2023-12-10T19:15:40.128Z,99.90
2023-12-10T19:20:43.943Z,99.90
2023-12-10T19:25:47.612Z,99.90
2023-12-10T19:30:54.049Z,99.90
2023-12-10T19:35:57.703Z,99.90
2023-12-10T19:41:01.370Z,99.90
2023-12-10T19:46:06.602Z,99.90
2023-12-10T19:51:10.355Z,99.90
2023-12-10T19:56:14.056Z,99.90
2023-12-10T20:01:19.417Z,99.90
2023-12-10T20:06:23.153Z,99.90
2023-12-10T20:11:26.892Z,99.90
2023-12-10T20:16:31.877Z,99.90
2023-12-10T20:21:36.896Z,99.90
2023-12-10T20:26:44.424Z,99.90
2023-12-10T20:31:49.603Z,99.90
2023-12-10T20:36:53.206Z,99.90
2023-12-10T20:41:56.936Z,99.90
2023-12-10T20:47:02.100Z,99.90
2023-12-10T20:52:06.410Z,99.90
2023-12-10T20:57:10.116Z,99.90
2023-12-10T21:02:15.145Z,99.90
2023-12-10T21:07:18.800Z,99.90
2023-12-10T21:12:22.412Z,99.90
2023-12-10T21:17:27.368Z,99.90
2023-12-10T21:22:31.135Z,99.90
2023-12-10T21:27:34.752Z,99.90
2023-12-10T21:32:39.965Z,99.90
2023-12-10T21:37:43.587Z,99.90
2023-12-10T21:42:47.195Z,99.90
2023-12-10T21:47:52.833Z,99.90
2023-12-10T21:52:56.608Z,99.90
2023-12-10T21:58:00.349Z,99.90
2023-12-10T22:03:05.369Z,99.90
2023-12-10T22:08:09.062Z,99.90
2023-12-10T22:13:12.773Z,99.90
2023-12-10T22:18:18.007Z,99.90
2023-12-10T22:23:21.645Z,99.90
2023-12-10T22:28:25.256Z,99.90
2023-12-10T22:33:30.846Z,99.90
2023-12-10T22:38:41.203Z,99.90
2023-12-10T22:43:44.886Z,99.90
2023-12-10T22:48:50.500Z,99.90
2023-12-10T22:53:54.195Z,99.90
2023-12-10T22:58:57.774Z,99.90
2023-12-10T23:04:02.862Z,99.90
2023-12-10T23:09:07.439Z,99.90
2023-12-10T23:14:11.172Z,99.90
2023-12-10T23:19:16.338Z,99.90
2023-12-10T23:24:19.999Z,99.90
2023-12-10T23:29:23.621Z,99.90
2023-12-10T23:34:28.608Z,99.90
2023-12-10T23:39:32.248Z,99.90
2023-12-10T23:44:35.836Z,99.90
2023-12-10T23:49:40.840Z,99.90
2023-12-10T23:54:44.573Z,99.90
2023-12-10T23:59:48.669Z,99.90
